createdAt,value
2023-04-18T00:01:29.110Z,4.83
2023-04-18T00:03:55.812Z,5.30
2023-04-18T00:06:22.528Z,5.10
2023-04-18T00:08:49.102Z,4.55
2023-04-18T00:11:15.683Z,4.57
2023-04-18T00:13:44.345Z,4.93
2023-04-18T00:16:11.171Z,5.22
2023-04-18T00:18:37.772Z,5.18
2023-04-18T00:21:04.651Z,4.15
2023-04-18T00:23:31.351Z,5.10
2023-04-18T00:25:57.953Z,4.37
2023-04-18T00:28:24.618Z,5.22
2023-04-18T00:30:52.699Z,4.90
2023-04-18T00:33:19.560Z,4.93
2023-04-18T00:35:46.103Z,5.57
2023-04-18T00:38:12.679Z,4.93
2023-04-18T00:40:40.361Z,5.88
2023-04-18T00:43:07.509Z,5.30
2023-04-18T00:45:34.227Z,5.32
2023-04-18T00:48:02.379Z,5.53
2023-04-18T00:50:29.539Z,5.23
2023-04-18T00:52:56.639Z,5.65
2023-04-18T00:55:24.619Z,5.80
2023-04-18T00:57:51.758Z,5.65
2023-04-18T01:00:18.621Z,5.40
2023-04-18T01:02:45.278Z,6.10
2023-04-18T01:05:13.485Z,5.53
2023-04-18T01:07:40.287Z,6.85
2023-04-18T01:10:08.133Z,6.50
2023-04-18T01:12:34.706Z,5.78
2023-04-18T01:15:01.244Z,5.80
2023-04-18T01:17:27.965Z,6.22
2023-04-18T01:19:54.561Z,6.53
2023-04-18T01:22:22.514Z,6.38
2023-04-18T01:24:50.580Z,6.35
2023-04-18T01:27:17.146Z,6.00
2023-04-18T01:29:43.702Z,6.45
2023-04-18T01:32:10.341Z,6.45
2023-04-18T01:34:36.913Z,6.65
2023-04-18T01:37:03.557Z,6.57
2023-04-18T01:39:30.126Z,5.93
2023-04-18T01:41:58.272Z,6.63
2023-04-18T01:44:24.908Z,6.38
2023-04-18T01:46:51.763Z,6.60
2023-04-18T01:49:18.472Z,7.10
2023-04-18T01:51:44.997Z,5.90
2023-04-18T01:54:12.006Z,5.90
2023-04-18T01:56:38.731Z,7.10
2023-04-18T01:59:06.685Z,5.35
2023-04-18T02:01:33.516Z,5.95
2023-04-18T02:04:00.184Z,7.33
2023-04-18T02:06:27.008Z,7.05
2023-04-18T02:08:53.604Z,6.50
2023-04-18T02:11:20.153Z,5.97
2023-04-18T02:13:46.885Z,7.05
2023-04-18T02:16:14.905Z,6.70
2023-04-18T02:18:43.072Z,6.68
2023-04-18T02:21:09.615Z,7.38
2023-04-18T02:23:36.383Z,6.28
2023-04-18T02:26:02.953Z,6.70
2023-04-18T02:28:29.538Z,6.60
2023-04-18T02:30:56.711Z,6.30
2023-04-18T02:33:24.706Z,6.10
2023-04-18T02:35:51.302Z,5.63
2023-04-18T02:38:17.872Z,6.07
2023-04-18T02:40:45.652Z,4.97
2023-04-18T02:43:12.235Z,5.28
2023-04-18T02:45:38.976Z,4.50
2023-04-18T02:48:05.607Z,5.38
2023-04-18T02:50:33.512Z,6.20
2023-04-18T02:53:00.515Z,5.57
2023-04-18T02:55:27.159Z,5.93
2023-04-18T02:57:53.609Z,5.75
2023-04-18T03:00:20.302Z,5.70
2023-04-18T03:02:47.104Z,6.00
2023-04-18T03:05:13.742Z,5.20
2023-04-18T03:07:41.888Z,6.22
2023-04-18T03:10:09.278Z,6.15
2023-04-18T03:12:35.978Z,5.75
2023-04-18T03:15:02.969Z,6.20
2023-04-18T03:17:29.738Z,5.40
2023-04-18T03:19:56.327Z,5.47
2023-04-18T03:22:22.903Z,5.70
2023-04-18T03:24:50.986Z,5.50
2023-04-18T03:27:17.756Z,5.88
2023-04-18T03:29:44.318Z,5.73
2023-04-18T03:32:10.901Z,5.05
2023-04-18T03:34:37.498Z,5.97
2023-04-18T03:37:04.057Z,6.40
2023-04-18T03:39:30.640Z,5.90
2023-04-18T03:41:58.528Z,5.33
2023-04-18T03:44:25.196Z,5.93
2023-04-18T03:46:52.236Z,4.93
2023-04-18T03:49:18.818Z,5.43
2023-04-18T03:51:47.048Z,5.90
2023-04-18T03:54:13.953Z,5.63
2023-04-18T03:56:40.902Z,5.13
2023-04-18T03:59:10.775Z,6.18
2023-04-18T04:01:37.737Z,5.95
2023-04-18T04:04:04.861Z,5.75
2023-04-18T04:06:31.558Z,5.63
2023-04-18T04:08:58.457Z,4.85
2023-04-18T04:11:25.009Z,5.55
2023-04-18T04:13:51.574Z,6.10
2023-04-18T04:16:19.734Z,5.30
2023-04-18T04:18:46.385Z,5.25
2023-04-18T04:21:13.005Z,5.20
2023-04-18T04:23:39.619Z,5.20
2023-04-18T04:26:06.149Z,5.43
2023-04-18T04:28:32.604Z,5.80
2023-04-18T04:30:59.138Z,4.38
2023-04-18T04:33:29.550Z,5.53
2023-04-18T04:35:57.741Z,5.03
2023-04-18T04:38:24.290Z,5.18
2023-04-18T04:40:51.249Z,5.50
2023-04-18T04:43:17.806Z,4.68
2023-04-18T04:45:44.508Z,5.40
2023-04-18T04:48:11.243Z,5.25
2023-04-18T04:50:41.540Z,5.90
2023-04-18T04:53:08.448Z,5.80
2023-04-18T04:55:35.075Z,6.25
2023-04-18T04:58:01.988Z,6.10
2023-04-18T05:00:28.627Z,5.72
2023-04-18T05:02:56.561Z,5.35
2023-04-18T05:05:23.634Z,6.30
2023-04-18T05:07:53.972Z,5.88
2023-04-18T05:10:20.933Z,6.03
2023-04-18T05:12:47.995Z,5.30
2023-04-18T05:15:15.938Z,6.05
2023-04-18T05:17:42.784Z,6.50
2023-04-18T05:20:09.695Z,6.68
2023-04-18T05:22:36.301Z,6.35
2023-04-18T05:25:05.188Z,5.20
2023-04-18T05:27:31.714Z,5.97
2023-04-18T05:29:58.409Z,5.27
2023-04-18T05:32:25.027Z,5.78
2023-04-18T05:34:52.012Z,6.25
2023-04-18T05:37:18.657Z,5.75
2023-04-18T05:39:45.275Z,5.97
2023-04-18T05:42:13.232Z,6.27
2023-04-18T05:44:39.771Z,6.38
2023-04-18T05:47:06.607Z,5.88
2023-04-18T05:49:33.336Z,6.20
2023-04-18T05:51:59.948Z,6.05
2023-04-18T05:54:26.560Z,5.60
2023-04-18T05:56:53.896Z,5.90
2023-04-18T05:59:21.886Z,5.93
2023-04-18T06:01:48.575Z,5.28
2023-04-18T06:04:15.602Z,6.07
2023-04-18T06:06:42.620Z,6.37
2023-04-18T06:09:09.273Z,5.72
2023-04-18T06:11:35.817Z,5.05
2023-04-18T06:14:02.808Z,5.22
2023-04-18T06:16:30.859Z,5.65
2023-04-18T06:18:59.513Z,5.17
2023-04-18T06:21:27.654Z,5.90
2023-04-18T06:23:54.292Z,5.65
2023-04-18T06:26:22.140Z,6.13
2023-04-18T06:28:48.704Z,5.60
2023-04-18T06:31:15.379Z,5.97
2023-04-18T06:33:43.422Z,5.43
2023-04-18T06:36:10.195Z,5.32
2023-04-18T06:38:36.810Z,5.80
2023-04-18T06:41:03.704Z,5.72
2023-04-18T06:43:30.359Z,4.70
2023-04-18T06:45:57.117Z,4.90
2023-04-18T06:48:23.796Z,5.68
2023-04-18T06:50:51.738Z,5.20
2023-04-18T06:53:18.388Z,5.07
2023-04-18T06:55:44.959Z,5.67
2023-04-18T06:58:11.647Z,5.40
2023-04-18T07:00:38.237Z,5.40
2023-04-18T07:03:04.985Z,5.05
2023-04-18T07:05:31.742Z,5.40
2023-04-18T07:07:59.690Z,5.40
2023-04-18T07:10:26.243Z,5.38
2023-04-18T07:12:52.863Z,5.70
2023-04-18T07:15:19.513Z,5.38
2023-04-18T07:17:48.728Z,5.50
2023-04-18T07:20:15.427Z,5.23
2023-04-18T07:22:42.427Z,4.88
2023-04-18T07:25:10.519Z,5.68
2023-04-18T07:27:37.486Z,5.60
2023-04-18T07:30:04.700Z,5.63
2023-04-18T07:32:31.401Z,5.37
2023-04-18T07:34:58.078Z,5.95
2023-04-18T07:37:24.823Z,5.93
2023-04-18T07:39:51.733Z,5.95
2023-04-18T07:42:19.747Z,5.70
2023-04-18T07:44:46.262Z,6.00
2023-04-18T07:47:12.965Z,6.05
2023-04-18T07:49:39.551Z,5.90
2023-04-18T07:52:06.143Z,6.07
2023-04-18T07:54:32.955Z,5.65
2023-04-18T07:56:59.820Z,4.57
2023-04-18T07:59:28.999Z,5.85
2023-04-18T08:01:55.759Z,5.55
2023-04-18T08:04:22.527Z,6.30
2023-04-18T08:06:49.579Z,5.70
2023-04-18T08:09:16.319Z,5.77
2023-04-18T08:11:43.078Z,5.32
2023-04-18T08:14:09.694Z,5.85
2023-04-18T08:16:39.445Z,5.57
2023-04-18T08:19:06.115Z,5.47
2023-04-18T08:21:33.242Z,5.50
2023-04-18T08:23:59.801Z,5.47
2023-04-18T08:26:26.432Z,5.85
2023-04-18T08:28:53.194Z,5.65
2023-04-18T08:31:19.939Z,6.00
2023-04-18T08:33:47.939Z,5.63
2023-04-18T08:36:14.627Z,5.00
2023-04-18T08:38:41.217Z,5.45
2023-04-18T08:41:08.536Z,5.13
2023-04-18T08:43:37.380Z,5.90
2023-04-18T08:46:04.195Z,5.40
2023-04-18T08:48:30.908Z,6.03
2023-04-18T08:51:00.216Z,6.00
2023-04-18T08:53:27.309Z,5.85
2023-04-18T08:55:55.176Z,4.93
2023-04-18T08:58:22.227Z,5.30
2023-04-18T09:00:50.609Z,5.72
2023-04-18T09:03:17.406Z,6.47
2023-04-18T09:06:04.514Z,5.38
2023-04-18T09:08:32.501Z,5.00
2023-04-18T09:11:22.670Z,5.70
2023-04-18T09:13:49.259Z,5.95
2023-04-18T09:16:17.055Z,6.22
2023-04-18T09:19:08.064Z,6.10
2023-04-18T09:21:34.726Z,5.97
2023-04-18T09:24:16.640Z,5.47
2023-04-18T09:26:43.418Z,6.75
2023-04-18T09:29:10.062Z,6.65
2023-04-18T09:31:57.759Z,6.43
2023-04-18T09:34:24.339Z,5.95
2023-04-18T09:37:06.265Z,6.20
2023-04-18T09:39:34.320Z,6.90
2023-04-18T09:42:01.237Z,6.95
2023-04-18T09:44:28.186Z,5.97
2023-04-18T09:46:54.954Z,6.22
2023-04-18T09:49:22.447Z,6.70
2023-04-18T09:51:51.185Z,6.43
2023-04-18T09:54:18.292Z,6.45
2023-04-18T09:56:48.122Z,7.32
2023-04-18T09:59:21.216Z,7.13
2023-04-18T10:01:49.583Z,6.47
2023-04-18T10:04:17.554Z,7.40
2023-04-18T10:06:46.020Z,6.80
2023-04-18T10:09:14.469Z,6.72
2023-04-18T10:11:41.701Z,6.63
2023-04-18T10:14:12.966Z,7.20
2023-04-18T10:16:43.515Z,5.75
2023-04-18T10:19:20.171Z,7.35
2023-04-18T10:21:51.986Z,7.35
2023-04-18T10:24:46.078Z,7.05
2023-04-18T10:27:12.653Z,5.73
2023-04-18T10:29:51.493Z,6.30
2023-04-18T10:32:19.312Z,6.57
2023-04-18T10:34:46.659Z,6.45
2023-04-18T10:37:13.389Z,7.43
2023-04-18T10:39:51.003Z,6.93
2023-04-18T10:42:17.612Z,5.82
2023-04-18T10:45:04.362Z,6.95
2023-04-18T10:47:32.491Z,6.22
2023-04-18T10:50:01.536Z,7.10
2023-04-18T10:52:28.453Z,6.47
2023-04-18T10:55:09.263Z,6.75
2023-04-18T10:57:40.333Z,7.10
2023-04-18T11:00:08.758Z,6.07
2023-04-18T11:02:37.129Z,6.57
2023-04-18T11:05:04.817Z,6.33
2023-04-18T11:07:35.684Z,6.57
2023-04-18T11:10:02.882Z,6.90
2023-04-18T11:12:30.528Z,6.28
2023-04-18T11:14:57.247Z,5.38
2023-04-18T11:17:25.726Z,6.20
2023-04-18T11:20:02.347Z,6.30
2023-04-18T11:22:29.124Z,6.63
2023-04-18T11:24:58.563Z,5.63
2023-04-18T11:27:25.943Z,6.82
2023-04-18T11:29:53.734Z,5.93
2023-04-18T11:32:22.604Z,5.97
2023-04-18T11:34:51.982Z,6.30
2023-04-18T11:37:20.506Z,6.85
2023-04-18T11:39:47.660Z,6.45
2023-04-18T11:42:14.488Z,6.30
2023-04-18T11:44:45.691Z,5.85
2023-04-18T11:47:25.829Z,7.18
2023-04-18T11:49:57.383Z,6.20
2023-04-18T11:52:27.037Z,6.13
2023-04-18T11:54:54.009Z,5.37
2023-04-18T11:57:22.956Z,6.65
2023-04-18T11:59:50.852Z,7.10
2023-04-18T12:02:17.945Z,6.65
2023-04-18T12:04:55.269Z,7.40
2023-04-18T12:07:37.719Z,6.33
2023-04-18T12:10:06.818Z,6.75
2023-04-18T12:12:33.885Z,7.00
2023-04-18T12:15:02.602Z,6.75
2023-04-18T12:17:30.401Z,7.35
2023-04-18T12:20:01.172Z,6.97
2023-04-18T12:22:39.491Z,7.80
2023-04-18T12:25:17.115Z,7.50
2023-04-18T12:27:50.684Z,7.35
2023-04-18T12:30:17.925Z,7.70
2023-04-18T12:32:44.522Z,7.80
2023-04-18T12:35:11.204Z,7.30
2023-04-18T12:37:39.414Z,7.15
2023-04-18T12:40:07.667Z,7.57
2023-04-18T12:42:34.317Z,7.43
2023-04-18T12:45:00.985Z,7.50
2023-04-18T12:47:27.691Z,7.80
2023-04-18T12:49:55.047Z,7.10
2023-04-18T12:52:21.627Z,7.70
2023-04-18T12:54:49.660Z,8.43
2023-04-18T12:57:16.950Z,8.30
2023-04-18T12:59:43.542Z,8.15
2023-04-18T13:02:10.285Z,8.18
2023-04-18T13:04:37.105Z,7.35
2023-04-18T13:07:03.788Z,6.95
2023-04-18T13:09:30.469Z,7.60
2023-04-18T13:11:58.444Z,6.93
2023-04-18T13:14:25.137Z,6.82
2023-04-18T13:16:51.884Z,7.75
2023-04-18T13:19:18.611Z,7.43
2023-04-18T13:21:45.155Z,7.47
2023-04-18T13:24:11.824Z,6.95
2023-04-18T13:26:38.424Z,7.80
2023-04-18T13:29:06.429Z,7.35
2023-04-18T13:31:33.023Z,7.72
2023-04-18T13:33:59.621Z,7.63
2023-04-18T13:36:27.676Z,7.35
2023-04-18T13:38:55.090Z,7.60
2023-04-18T13:41:21.671Z,7.78
2023-04-18T13:43:48.370Z,7.57
2023-04-18T13:46:17.750Z,6.57
2023-04-18T13:48:44.544Z,7.43
2023-04-18T13:51:11.533Z,6.88
2023-04-18T13:53:38.134Z,8.40
2023-04-18T13:56:05.435Z,8.50
2023-04-18T13:58:32.019Z,7.53
2023-04-18T14:00:58.608Z,7.80
2023-04-18T14:03:27.068Z,7.93
2023-04-18T14:05:53.914Z,7.63
2023-04-18T14:08:20.536Z,8.05
2023-04-18T14:10:47.122Z,7.33
2023-04-18T14:13:13.765Z,7.18
2023-04-18T14:15:40.364Z,7.32
2023-04-18T14:18:07.013Z,6.93
2023-04-18T14:20:36.195Z,8.40
2023-04-18T14:23:02.776Z,7.97
2023-04-18T14:25:30.268Z,7.40
2023-04-18T14:28:05.359Z,7.20
2023-04-18T14:30:32.031Z,7.25
2023-04-18T14:32:58.650Z,7.47
2023-04-18T14:35:25.264Z,6.73
2023-04-18T14:37:53.217Z,6.65
2023-04-18T14:40:20.582Z,7.40
2023-04-18T14:42:47.390Z,7.07
2023-04-18T14:45:16.541Z,7.15
2023-04-18T14:47:43.362Z,6.40
2023-04-18T14:50:11.002Z,6.57
2023-04-18T14:52:38.174Z,6.40
2023-04-18T14:55:07.705Z,7.30
2023-04-18T14:57:35.786Z,6.53
2023-04-18T15:00:02.663Z,7.13
2023-04-18T15:02:29.442Z,7.78
2023-04-18T15:04:56.323Z,6.78
2023-04-18T15:07:22.960Z,7.18
2023-04-18T15:09:50.449Z,7.60
2023-04-18T15:12:18.448Z,6.30
2023-04-18T15:14:45.145Z,7.30
2023-04-18T15:17:11.740Z,7.18
2023-04-18T15:19:38.534Z,6.93
2023-04-18T15:22:05.152Z,6.65
2023-04-18T15:24:31.724Z,7.00
2023-04-18T15:26:58.362Z,6.57
2023-04-18T15:29:26.340Z,6.88
2023-04-18T15:31:53.161Z,6.00
2023-04-18T15:34:19.747Z,6.57
2023-04-18T15:36:47.433Z,6.43
2023-04-18T15:39:14.221Z,7.03
2023-04-18T15:41:40.868Z,7.57
2023-04-18T15:44:08.103Z,6.90
2023-04-18T15:46:36.587Z,7.10
2023-04-18T15:49:03.258Z,7.07
2023-04-18T15:51:29.935Z,7.07
2023-04-18T15:53:56.555Z,8.05
2023-04-18T15:56:25.226Z,7.18
2023-04-18T15:58:51.780Z,7.80
2023-04-18T16:01:18.472Z,7.83
2023-04-18T16:03:46.489Z,7.22
2023-04-18T16:06:14.477Z,8.13
2023-04-18T16:08:41.147Z,8.07
2023-04-18T16:11:07.794Z,7.78
2023-04-18T16:13:35.334Z,7.37
2023-04-18T16:16:04.300Z,7.85
2023-04-18T16:18:31.283Z,7.57
2023-04-18T16:20:59.285Z,7.80
2023-04-18T16:23:26.493Z,8.77
2023-04-18T16:25:53.475Z,7.70
2023-04-18T16:28:20.083Z,7.95
2023-04-18T16:30:46.962Z,9.20
2023-04-18T16:33:13.627Z,8.10
2023-04-18T16:35:40.418Z,8.60
2023-04-18T16:38:08.319Z,7.40
2023-04-18T16:40:35.018Z,8.73
2023-04-18T16:43:01.649Z,8.60
2023-04-18T16:45:28.238Z,8.57
2023-04-18T16:47:54.872Z,8.63
2023-04-18T16:50:24.104Z,8.30
2023-04-18T16:52:50.696Z,8.70
2023-04-18T16:55:18.766Z,8.15
2023-04-18T16:57:45.443Z,8.55
2023-04-18T17:00:12.735Z,8.60
2023-04-18T17:02:39.596Z,8.17
2023-04-18T17:05:06.851Z,8.32
2023-04-18T17:07:33.731Z,8.65
2023-04-18T17:10:00.256Z,8.77
2023-04-18T17:12:28.528Z,8.18
2023-04-18T17:14:55.092Z,8.27
2023-04-18T17:17:21.719Z,7.88
2023-04-18T17:19:48.292Z,8.00
2023-04-18T17:22:14.868Z,8.38
2023-04-18T17:24:41.408Z,8.60
2023-04-18T17:27:07.944Z,8.83
2023-04-18T17:29:35.845Z,7.25
2023-04-18T17:32:02.529Z,8.48
2023-04-18T17:34:29.235Z,7.75
2023-04-18T17:36:56.081Z,8.55
2023-04-18T17:39:22.694Z,8.67
2023-04-18T17:41:49.678Z,8.55
2023-04-18T17:44:16.281Z,9.18
2023-04-18T17:46:44.246Z,9.15
2023-04-18T17:49:10.880Z,8.95
2023-04-18T17:51:37.884Z,7.87
2023-04-18T17:54:04.470Z,8.90
2023-04-18T17:56:31.017Z,9.02
2023-04-18T17:58:57.621Z,9.07
2023-04-18T18:01:24.236Z,9.13
2023-04-18T18:03:52.521Z,9.03
2023-04-18T18:06:19.149Z,9.27
2023-04-18T18:08:45.801Z,9.45
2023-04-18T18:11:12.416Z,8.55
2023-04-18T18:13:39.256Z,8.60
2023-04-18T18:16:06.337Z,9.13
2023-04-18T18:18:32.973Z,9.40
2023-04-18T18:21:00.806Z,9.05
2023-04-18T18:23:27.391Z,9.55
2023-04-18T18:25:54.010Z,9.25
2023-04-18T18:28:20.571Z,10.90
2023-04-18T18:30:47.277Z,9.23
2023-04-18T18:33:13.979Z,9.15
2023-04-18T18:35:40.603Z,8.88
2023-04-18T18:38:08.686Z,9.52
2023-04-18T18:40:35.296Z,9.47
2023-04-18T18:43:01.863Z,9.43
2023-04-18T18:45:28.694Z,8.55
2023-04-18T18:47:55.373Z,9.35
2023-04-18T18:50:22.175Z,9.05
2023-04-18T18:52:48.812Z,8.27
2023-04-18T18:55:16.851Z,8.00
2023-04-18T18:57:43.428Z,8.73
2023-04-18T19:00:10.913Z,9.13
2023-04-18T19:02:38.116Z,9.27
2023-04-18T19:05:06.140Z,9.33
2023-04-18T19:07:32.821Z,9.40
2023-04-18T19:09:59.633Z,9.00
2023-04-18T19:12:27.942Z,8.82
2023-04-18T19:14:54.768Z,9.52
2023-04-18T19:17:21.423Z,8.47
2023-04-18T19:19:48.534Z,9.20
2023-04-18T19:22:15.343Z,8.77
2023-04-18T19:24:42.033Z,9.05
2023-04-18T19:27:08.935Z,8.80
2023-04-18T19:29:37.252Z,9.80
2023-04-18T19:32:04.428Z,9.55
2023-04-18T19:34:31.214Z,9.25
2023-04-18T19:36:57.979Z,9.38
2023-04-18T19:39:24.545Z,10.02
2023-04-18T19:41:52.769Z,9.30
2023-04-18T19:44:19.714Z,9.90
2023-04-18T19:46:47.686Z,10.00
2023-04-18T19:49:14.606Z,8.65
2023-04-18T19:51:42.304Z,9.43
2023-04-18T19:54:08.933Z,8.37
2023-04-18T19:56:35.610Z,8.90
2023-04-18T19:59:02.265Z,9.98
2023-04-18T20:01:29.720Z,8.95
2023-04-18T20:03:58.298Z,9.30
2023-04-18T20:06:25.311Z,9.00
2023-04-18T20:08:52.491Z,7.90
2023-04-18T20:11:19.383Z,8.95
2023-04-18T20:13:46.510Z,9.02
2023-04-18T20:16:13.206Z,8.93
2023-04-18T20:18:41.280Z,8.50
2023-04-18T20:21:10.072Z,8.80
2023-04-18T20:23:37.504Z,9.15
2023-04-18T20:26:04.420Z,8.70
2023-04-18T20:28:31.288Z,8.95
2023-04-18T20:30:58.099Z,9.10
2023-04-18T20:33:24.793Z,8.43
2023-04-18T20:35:51.348Z,6.22
2023-04-18T20:38:19.288Z,8.25
2023-04-18T20:40:45.922Z,8.82
2023-04-18T20:43:12.889Z,8.23
2023-04-18T20:45:39.590Z,7.22
2023-04-18T20:48:06.843Z,7.47
2023-04-18T20:50:33.422Z,8.07
2023-04-18T20:53:00.131Z,8.23
2023-04-18T20:55:28.142Z,8.23
2023-04-18T20:57:54.838Z,8.13
2023-04-18T21:00:21.922Z,8.15
2023-04-18T21:02:48.736Z,8.50
2023-04-18T21:05:15.487Z,7.47
2023-04-18T21:07:44.032Z,7.40
2023-04-18T21:10:12.215Z,7.90
2023-04-18T21:12:41.322Z,8.30
2023-04-18T21:15:08.726Z,7.43
2023-04-18T21:17:35.337Z,8.20
2023-04-18T21:20:02.133Z,7.37
2023-04-18T21:22:28.809Z,7.75
2023-04-18T21:24:55.568Z,7.63
2023-04-18T21:27:22.176Z,8.40
2023-04-18T21:29:50.255Z,6.78
2023-04-18T21:32:16.858Z,7.90
2023-04-18T21:34:43.541Z,8.30
2023-04-18T21:37:10.217Z,8.13
2023-04-18T21:39:36.802Z,8.18
2023-04-18T21:42:03.696Z,8.30
2023-04-18T21:44:30.267Z,8.50
2023-04-18T21:46:58.201Z,8.15
2023-04-18T21:49:24.926Z,8.10
2023-04-18T21:51:51.559Z,8.75
2023-04-18T21:54:18.238Z,7.68
2023-04-18T21:56:44.817Z,8.50
2023-04-18T21:59:11.416Z,8.00
2023-04-18T22:01:38.105Z,8.93
2023-04-18T22:04:06.338Z,8.48
2023-04-18T22:06:33.460Z,8.27
2023-04-18T22:09:00.331Z,9.20
2023-04-18T22:11:26.895Z,8.65
2023-04-18T22:13:53.574Z,9.65
2023-04-18T22:16:20.835Z,7.78
2023-04-18T22:18:48.012Z,8.32
2023-04-18T22:21:16.215Z,8.77
2023-04-18T22:23:42.802Z,9.73
2023-04-18T22:26:09.553Z,8.98
2023-04-18T22:28:36.141Z,8.98
2023-04-18T22:31:02.834Z,9.30
2023-04-18T22:33:29.667Z,9.07
2023-04-18T22:35:56.401Z,9.15
2023-04-18T22:38:25.021Z,8.15
2023-04-18T22:40:51.713Z,9.40
2023-04-18T22:43:18.372Z,8.95
2023-04-18T22:45:45.287Z,9.60
2023-04-18T22:48:12.164Z,9.15
2023-04-18T22:50:38.779Z,9.30
2023-04-18T22:53:05.430Z,9.38
2023-04-18T22:55:33.629Z,8.48
2023-04-18T22:58:00.209Z,9.43
2023-04-18T23:00:26.923Z,9.25
2023-04-18T23:02:53.635Z,9.38
2023-04-18T23:05:20.373Z,9.55
2023-04-18T23:07:46.958Z,9.27
2023-04-18T23:10:13.588Z,9.03
2023-04-18T23:12:41.592Z,9.30
2023-04-18T23:15:08.890Z,9.15
2023-04-18T23:17:35.480Z,9.07
2023-04-18T23:20:02.089Z,8.48
2023-04-18T23:22:29.141Z,8.77
2023-04-18T23:24:55.766Z,8.65
2023-04-18T23:27:22.332Z,9.05
2023-04-18T23:29:50.407Z,9.43
2023-04-18T23:32:17.011Z,9.23
2023-04-18T23:34:45.081Z,9.20
2023-04-18T23:37:11.920Z,8.32
2023-04-18T23:39:38.487Z,9.38
2023-04-18T23:42:05.206Z,9.45
2023-04-18T23:44:31.846Z,8.93
2023-04-18T23:46:59.869Z,8.73
2023-04-18T23:49:26.680Z,9.70
2023-04-18T23:51:53.385Z,9.32
2023-04-18T23:54:19.968Z,9.27
2023-04-18T23:56:46.635Z,9.38
2023-04-18T23:59:13.202Z,9.20
